createdAt,value
2017-07-04T00:01:03.798Z,1007.99
2017-07-04T00:03:27.878Z,1007.96
2017-07-04T00:05:38.285Z,1007.96
2017-07-04T00:08:02.400Z,1007.95
2017-07-04T00:10:17.991Z,1007.92
2017-07-04T00:12:42.066Z,1007.96
2017-07-04T00:15:06.187Z,1007.89
2017-07-04T00:17:30.304Z,1007.87
2017-07-04T00:19:54.422Z,1007.86
2017-07-04T00:22:18.497Z,1007.86
2017-07-04T00:24:42.582Z,1007.84
2017-07-04T00:26:52.996Z,1007.79
2017-07-04T00:29:17.150Z,1007.82
2017-07-04T00:31:41.281Z,1007.75
2017-07-04T00:34:05.310Z,1007.79
2017-07-04T00:36:29.394Z,1007.81
2017-07-04T00:38:39.353Z,1007.8
2017-07-04T00:41:03.493Z,1007.77
2017-07-04T00:43:27.569Z,1007.78
2017-07-04T00:45:51.723Z,1007.8
2017-07-04T00:48:07.317Z,1007.78
2017-07-04T00:50:31.469Z,1007.77
2017-07-04T00:52:47.120Z,1007.78
2017-07-04T00:55:02.808Z,1007.75
2017-07-04T00:57:18.497Z,1007.73
2017-07-04T00:59:42.591Z,1007.77
2017-07-04T01:02:06.701Z,1007.8
2017-07-04T01:04:30.832Z,1007.8
2017-07-04T01:06:54.960Z,1007.82
2017-07-04T01:09:19.095Z,1007.82
2017-07-04T01:11:43.230Z,1007.82
2017-07-04T01:13:50.433Z,1007.88
2017-07-04T01:16:14.569Z,1007.88
2017-07-04T01:18:38.647Z,1007.84
2017-07-04T01:21:02.758Z,1007.84
2017-07-04T01:23:18.401Z,1007.78
2017-07-04T01:25:34.063Z,1007.79
2017-07-04T01:27:58.174Z,1007.85
2017-07-04T01:30:22.716Z,1007.82
2017-07-04T01:32:46.806Z,1007.81
2017-07-04T01:35:10.898Z,1007.8
2017-07-04T01:37:34.987Z,1007.84
2017-07-04T01:39:50.631Z,1007.82
2017-07-04T01:42:14.716Z,1007.84
2017-07-04T01:44:38.777Z,1007.83
2017-07-04T01:47:02.851Z,1007.8
2017-07-04T01:49:26.931Z,1007.8
2017-07-04T01:51:51.015Z,1007.77
2017-07-04T01:54:15.247Z,1007.78
2017-07-04T01:56:39.301Z,1007.76
2017-07-04T01:59:03.360Z,1007.8
2017-07-04T02:01:27.418Z,1007.76
2017-07-04T02:03:51.472Z,1007.72
2017-07-04T02:06:15.539Z,1007.74
2017-07-04T02:08:39.616Z,1007.82
2017-07-04T02:10:55.257Z,1007.82
2017-07-04T02:12:56.634Z,1007.78
2017-07-04T02:15:12.299Z,1007.73
2017-07-04T02:17:36.403Z,1007.71
2017-07-04T02:20:00.489Z,1007.71
2017-07-04T02:22:24.528Z,1007.71
2017-07-04T02:24:48.559Z,1007.7
2017-07-04T02:27:12.634Z,1007.73
2017-07-04T02:29:36.727Z,1007.67
2017-07-04T02:31:52.369Z,1007.69
2017-07-04T02:34:16.470Z,1007.68
2017-07-04T02:36:40.502Z,1007.68
2017-07-04T02:39:04.587Z,1007.7
2017-07-04T02:41:28.622Z,1007.73
2017-07-04T02:43:52.693Z,1007.74
2017-07-04T02:46:16.777Z,1007.75
2017-07-04T02:48:40.854Z,1007.74
2017-07-04T02:51:04.936Z,1007.8
2017-07-04T02:53:29.850Z,1007.77
2017-07-04T02:55:54.000Z,1007.75
2017-07-04T02:58:17.951Z,1007.78
2017-07-04T03:00:34.312Z,1007.68
2017-07-04T03:02:58.403Z,1007.82
2017-07-04T03:05:14.986Z,1007.65
2017-07-04T03:07:30.682Z,1007.82
2017-07-04T03:09:54.750Z,1007.78
2017-07-04T03:12:02.916Z,1007.78
2017-07-04T03:14:26.935Z,1007.81
2017-07-04T03:16:50.971Z,1007.79
2017-07-04T03:19:15.022Z,1007.78
2017-07-04T03:21:30.638Z,1007.8
2017-07-04T03:23:54.644Z,1007.78
2017-07-04T03:26:18.681Z,1007.82
2017-07-04T03:28:42.776Z,1007.83
2017-07-04T03:31:06.864Z,1007.83
2017-07-04T03:33:30.942Z,1007.84
2017-07-04T03:35:55.004Z,1007.86
2017-07-04T03:38:19.084Z,1007.9
2017-07-04T03:40:45.135Z,1007.89
2017-07-04T03:43:09.211Z,1007.9
2017-07-04T03:45:24.867Z,1007.9
2017-07-04T03:47:48.927Z,1007.9
2017-07-04T03:50:14.075Z,1007.94
2017-07-04T03:52:38.153Z,1007.92
2017-07-04T03:55:02.255Z,1007.91
2017-07-04T03:57:26.329Z,1007.94
2017-07-04T03:59:50.324Z,1007.94
2017-07-04T04:02:14.438Z,1007.96
2017-07-04T04:04:38.444Z,1007.99
2017-07-04T04:07:02.532Z,1008.04
2017-07-04T04:09:26.570Z,1008.05
2017-07-04T04:11:52.655Z,1008.08
2017-07-04T04:14:16.730Z,1008.08
2017-07-04T04:16:40.819Z,1008.07
2017-07-04T04:19:04.852Z,1008.12
2017-07-04T04:21:20.472Z,1008.13
2017-07-04T04:23:44.548Z,1008.18
2017-07-04T04:26:08.614Z,1008.19
2017-07-04T04:28:32.669Z,1008.17
2017-07-04T04:30:56.725Z,1008.17
2017-07-04T04:33:20.784Z,1008.2
2017-07-04T04:35:44.877Z,1008.21
2017-07-04T04:39:44.707Z,1008.26
2017-07-04T04:42:08.723Z,1008.3
2017-07-04T04:44:32.772Z,1008.32
2017-07-04T04:46:56.871Z,1008.36
2017-07-04T04:49:07.259Z,1008.35
2017-07-04T04:51:22.891Z,1008.36
2017-07-04T04:53:30.068Z,1008.37
2017-07-04T04:55:54.142Z,1008.4
2017-07-04T04:58:18.220Z,1008.4
2017-07-04T05:00:11.159Z,1008.43
2017-07-04T05:02:35.212Z,1008.47
2017-07-04T05:04:59.318Z,1008.46
2017-07-04T05:07:23.398Z,1008.48
2017-07-04T05:09:47.469Z,1008.46
2017-07-04T05:12:11.526Z,1008.48
2017-07-04T05:14:35.579Z,1008.48
2017-07-04T05:16:59.669Z,1008.48
2017-07-04T05:19:23.780Z,1008.46
2017-07-04T05:21:47.882Z,1008.5
2017-07-04T05:24:12.122Z,1008.47
2017-07-04T05:26:36.198Z,1008.51
2017-07-04T05:29:00.402Z,1008.46
2017-07-04T05:31:25.383Z,1008.49
2017-07-04T05:33:51.533Z,1008.54
2017-07-04T05:36:16.237Z,1008.54
2017-07-04T05:38:41.583Z,1008.53
2017-07-04T05:41:05.817Z,1008.61
2017-07-04T05:43:16.294Z,1008.63
2017-07-04T05:45:41.330Z,1008.63
2017-07-04T05:48:06.082Z,1008.63
2017-07-04T05:52:31.086Z,1008.64
2017-07-04T06:01:04.690Z,1008.63
2017-07-04T06:14:58.595Z,1008.68
2017-07-04T06:17:28.810Z,1008.71
2017-07-04T06:19:53.286Z,1008.77
2017-07-04T06:22:14.000Z,1008.89
2017-07-04T06:24:39.155Z,1009.09
2017-07-04T06:27:04.465Z,1009.14
2017-07-04T06:29:29.667Z,1009.12
2017-07-04T06:31:55.153Z,1009.18
2017-07-04T06:34:20.945Z,1009.17
2017-07-04T06:36:26.145Z,1009.19
2017-07-04T06:38:53.580Z,1009.21
2017-07-04T06:41:20.682Z,1009.18
2017-07-04T06:43:47.713Z,1009.1
2017-07-04T06:46:14.495Z,1008.94
2017-07-04T06:48:42.074Z,1009.09
2017-07-04T06:51:09.152Z,1009.02
2017-07-04T06:53:36.380Z,1009.06
2017-07-04T06:56:03.098Z,1009.06
2017-07-04T06:58:29.511Z,1009.08
2017-07-04T07:00:55.934Z,1009.07
2017-07-04T07:03:22.119Z,1009.11
2017-07-04T07:05:48.387Z,1009.11
2017-07-04T07:08:14.647Z,1009.12
2017-07-04T07:10:40.806Z,1009.17
2017-07-04T07:13:08.117Z,1009.17
2017-07-04T07:15:10.629Z,1009.12
2017-07-04T07:17:38.987Z,1009.18
2017-07-04T07:20:05.332Z,1009.19
2017-07-04T07:22:32.516Z,1009.11
2017-07-04T07:24:43.787Z,1009
2017-07-04T07:27:09.885Z,1009.02
2017-07-04T07:29:35.733Z,1009.05
2017-07-04T07:32:01.506Z,1009.16
2017-07-04T07:34:06.016Z,1009.1
2017-07-04T07:36:32.403Z,1008.87
2017-07-04T07:38:58.457Z,1008.77
2017-07-04T07:41:24.294Z,1009.06
2017-07-04T07:43:41.642Z,1008.95
2017-07-04T07:46:08.432Z,1008.97
2017-07-04T07:48:34.196Z,1008.95
2017-07-04T07:51:00.234Z,1009
2017-07-04T07:53:26.470Z,1008.95
2017-07-04T07:55:53.530Z,1008.97
2017-07-04T07:58:19.916Z,1008.96
2017-07-04T08:00:46.271Z,1008.95
2017-07-04T08:03:11.971Z,1008.97
2017-07-04T08:05:38.586Z,1008.93
2017-07-04T08:08:05.493Z,1008.9
2017-07-04T08:12:22.155Z,1008.89
2017-07-04T08:14:48.977Z,1008.84
2017-07-04T08:17:15.417Z,1008.84
2017-07-04T08:19:44.738Z,1008.81
2017-07-04T08:22:11.723Z,1008.82
2017-07-04T08:24:39.564Z,1008.86
2017-07-04T08:27:09.144Z,1008.81
2017-07-04T08:31:09.129Z,1008.84
2017-07-04T08:33:36.924Z,1008.83
2017-07-04T08:36:03.616Z,1008.78
2017-07-04T08:38:29.905Z,1008.79
2017-07-04T08:40:57.304Z,1008.79
2017-07-04T08:43:23.500Z,1008.8
2017-07-04T08:45:56.174Z,1008.82
2017-07-04T08:48:22.945Z,1008.83
2017-07-04T08:50:50.020Z,1008.81
2017-07-04T08:53:18.546Z,1008.77
2017-07-04T08:55:48.164Z,1008.75
2017-07-04T09:00:47.497Z,1008.55
2017-07-04T09:03:16.907Z,1008.58
2017-07-04T09:05:45.187Z,1008.75
2017-07-04T09:08:12.325Z,1008.52
2017-07-04T09:10:46.979Z,1008.49
2017-07-04T09:13:12.911Z,1008.75
2017-07-04T09:15:39.436Z,1008.76
2017-07-04T09:18:05.591Z,1008.75
2017-07-04T09:20:31.865Z,1008.7
2017-07-04T09:22:51.505Z,1008.66
2017-07-04T09:25:18.329Z,1008.65
2017-07-04T09:27:45.230Z,1008.66
2017-07-04T09:30:12.990Z,1008.69
2017-07-04T09:32:39.015Z,1008.67
2017-07-04T09:35:06.055Z,1008.68
2017-07-04T09:37:32.141Z,1008.67
2017-07-04T09:43:12.473Z,1008.57
2017-07-04T09:45:43.519Z,1008.31
2017-07-04T09:48:10.147Z,1008.57
2017-07-04T09:50:36.448Z,1008.5
2017-07-04T09:53:02.934Z,1008.46
2017-07-04T09:55:31.369Z,1008.5
2017-07-04T09:57:59.868Z,1008.47
2017-07-04T10:00:27.476Z,1008.45
2017-07-04T10:02:54.600Z,1008.44
2017-07-04T10:05:20.604Z,1008.46
2017-07-04T10:07:46.515Z,1008.42
2017-07-04T10:10:12.393Z,1008.33
2017-07-04T10:12:53.272Z,1008.29
2017-07-04T10:15:18.919Z,1008.12
2017-07-04T10:17:44.896Z,1008.23
2017-07-04T10:20:10.721Z,1008.07
2017-07-04T10:22:37.019Z,1008.11
2017-07-04T10:25:03.623Z,1008.18
2017-07-04T10:27:29.300Z,1008.13
2017-07-04T10:29:54.769Z,1008.1
2017-07-04T10:32:20.503Z,1008.05
2017-07-04T10:34:46.018Z,1008.02
2017-07-04T10:37:11.580Z,1008.08
2017-07-04T10:39:37.295Z,1008.06
2017-07-04T10:42:02.903Z,1007.99
2017-07-04T10:44:28.431Z,1007.94
2017-07-04T10:46:53.820Z,1007.87
2017-07-04T10:49:10.626Z,1007.75
2017-07-04T10:51:35.965Z,1007.86
2017-07-04T10:55:37.683Z,1007.97
2017-07-04T10:58:03.287Z,1007.83
2017-07-04T11:00:28.543Z,1007.83
2017-07-04T11:02:53.839Z,1007.84
2017-07-04T11:05:19.176Z,1007.87
2017-07-04T11:07:45.325Z,1007.82
2017-07-04T11:10:10.449Z,1007.83
2017-07-04T11:12:35.667Z,1007.87
2017-07-04T11:15:00.746Z,1007.83
2017-07-04T11:17:26.048Z,1007.8
2017-07-04T11:19:51.528Z,1007.71
2017-07-04T11:22:17.053Z,1007.69
2017-07-04T11:24:42.280Z,1007.7
2017-07-04T11:27:07.805Z,1007.69
2017-07-04T11:29:33.025Z,1007.65
2017-07-04T11:31:58.301Z,1007.56
2017-07-04T11:34:23.562Z,1007.6
2017-07-04T11:36:48.770Z,1007.55
2017-07-04T11:39:13.844Z,1007.53
2017-07-04T11:41:39.021Z,1007.49
2017-07-04T11:44:04.023Z,1007.57
2017-07-04T11:46:29.125Z,1007.54
2017-07-04T11:48:54.438Z,1007.47
2017-07-04T11:51:34.264Z,1007.43
2017-07-04T11:53:59.365Z,1007.5
2017-07-04T11:56:24.492Z,1007.5
2017-07-04T11:58:49.659Z,1007.5
2017-07-04T12:01:14.807Z,1007.48
2017-07-04T12:03:39.925Z,1007.46
2017-07-04T12:06:05.435Z,1007.35
2017-07-04T12:08:31.280Z,1007.39
2017-07-04T12:10:56.547Z,1007.33
2017-07-04T12:13:21.814Z,1007.36
2017-07-04T12:15:47.081Z,1007.34
2017-07-04T12:18:12.309Z,1007.29
2017-07-04T12:20:37.528Z,1007.27
2017-07-04T12:23:02.758Z,1007.22
2017-07-04T12:25:27.900Z,1007.23
2017-07-04T12:27:53.081Z,1007.28
2017-07-04T12:30:18.296Z,1007.29
2017-07-04T12:32:43.544Z,1007.19
2017-07-04T12:35:08.626Z,1007.23
2017-07-04T12:37:33.779Z,1007.26
2017-07-04T12:39:58.877Z,1007.26
2017-07-04T12:42:24.616Z,1007.21
2017-07-04T12:44:49.682Z,1007.16
2017-07-04T12:47:14.739Z,1007.11
2017-07-04T12:49:39.944Z,1007.13
2017-07-04T12:52:05.230Z,1007.1
2017-07-04T12:54:30.408Z,1007.12
2017-07-04T12:56:55.482Z,1007.12
2017-07-04T12:59:20.621Z,1007.04
2017-07-04T13:01:45.677Z,1007.06
2017-07-04T13:04:10.851Z,1007.05
2017-07-04T13:06:45.256Z,1006.97
2017-07-04T13:09:10.313Z,1006.97
2017-07-04T13:11:35.373Z,1006.97
2017-07-04T13:14:00.601Z,1006.89
2017-07-04T13:16:25.758Z,1006.91
2017-07-04T13:18:50.823Z,1006.87
2017-07-04T13:21:15.917Z,1006.83
2017-07-04T13:23:41.207Z,1006.87
2017-07-04T13:26:06.333Z,1006.76
2017-07-04T13:28:31.450Z,1006.78
2017-07-04T13:30:56.569Z,1006.72
2017-07-04T13:33:21.684Z,1006.73
2017-07-04T13:35:46.710Z,1006.72
2017-07-04T13:38:11.841Z,1006.7
2017-07-04T13:40:37.084Z,1006.7
2017-07-04T13:42:47.895Z,1006.67
2017-07-04T13:45:13.110Z,1006.7
2017-07-04T13:47:38.599Z,1006.66
2017-07-04T13:49:55.192Z,1006.48
2017-07-04T13:52:20.265Z,1006.6
2017-07-04T13:54:45.346Z,1006.68
2017-07-04T13:57:10.472Z,1006.61
2017-07-04T13:59:35.586Z,1006.61
2017-07-04T14:02:00.703Z,1006.61
2017-07-04T14:04:12.343Z,1006.64
2017-07-04T14:06:40.288Z,1006.66
2017-07-04T14:09:05.452Z,1006.65
2017-07-04T14:11:30.753Z,1006.54
2017-07-04T14:13:56.205Z,1006.53
2017-07-04T14:16:21.296Z,1006.54
2017-07-04T14:18:53.455Z,1006.52
2017-07-04T14:21:18.518Z,1006.55
2017-07-04T14:23:43.685Z,1006.53
2017-07-04T14:26:08.763Z,1006.51
2017-07-04T14:28:33.758Z,1006.52
2017-07-04T14:30:58.751Z,1006.46
2017-07-04T14:33:23.951Z,1006.43
2017-07-04T14:36:04.724Z,1006.44
2017-07-04T14:38:29.839Z,1006.43
2017-07-04T14:40:54.981Z,1006.4
2017-07-04T14:43:20.133Z,1006.4
2017-07-04T14:45:45.225Z,1006.39
2017-07-04T14:49:46.898Z,1006.39
2017-07-04T14:52:11.899Z,1006.37
2017-07-04T14:54:28.423Z,1006.3
2017-07-04T14:56:53.463Z,1006.33
2017-07-04T14:59:06.706Z,1006.3
2017-07-04T15:01:23.263Z,1006.13
2017-07-04T15:03:48.261Z,1006.26
2017-07-04T15:06:13.298Z,1006.25
2017-07-04T15:08:38.322Z,1006.26
2017-07-04T15:11:03.311Z,1006.25
2017-07-04T15:13:28.234Z,1006.32
2017-07-04T15:15:44.724Z,1006.21
2017-07-04T15:17:46.851Z,1006.22
2017-07-04T15:20:11.847Z,1006.24
2017-07-04T15:22:36.857Z,1006.26
2017-07-04T15:25:01.817Z,1006.24
2017-07-04T15:27:18.315Z,1006.17
2017-07-04T15:29:43.304Z,1006.18
2017-07-04T15:32:08.254Z,1006.11
2017-07-04T15:34:33.241Z,1006.12
2017-07-04T15:36:58.246Z,1006.05
2017-07-04T15:39:23.188Z,1006.04
2017-07-04T15:41:48.127Z,1005.98
2017-07-04T15:44:04.625Z,1005.98
2017-07-04T15:46:30.539Z,1005.99
2017-07-04T15:48:55.539Z,1005.94
2017-07-04T15:51:20.581Z,1005.89
2017-07-04T15:53:45.535Z,1005.93
2017-07-04T15:55:56.177Z,1005.88
2017-07-04T15:58:21.162Z,1005.83
2017-07-04T16:00:37.628Z,1005.86
2017-07-04T16:03:02.553Z,1005.79
2017-07-04T16:05:27.483Z,1005.84
2017-07-04T16:07:35.406Z,1005.82
2017-07-04T16:10:00.340Z,1005.78
2017-07-04T16:12:25.239Z,1005.78
2017-07-04T16:14:41.678Z,1005.73
2017-07-04T16:17:06.603Z,1005.71
2017-07-04T16:19:08.706Z,1005.66
2017-07-04T16:21:33.652Z,1005.68
2017-07-04T16:23:58.601Z,1005.71
2017-07-04T16:26:23.515Z,1005.66
2017-07-04T16:28:39.961Z,1005.71
2017-07-04T16:31:04.848Z,1005.73
2017-07-04T16:33:29.713Z,1005.8
2017-07-04T16:35:32.755Z,1005.78
2017-07-04T16:37:56.749Z,1005.79
2017-07-04T16:40:21.648Z,1005.79
2017-07-04T16:42:46.557Z,1005.76
2017-07-04T16:45:11.389Z,1005.76
2017-07-04T16:47:36.262Z,1005.67
2017-07-04T16:50:01.149Z,1005.68
2017-07-04T16:52:17.547Z,1005.63
2017-07-04T16:54:33.963Z,1005.67
2017-07-04T16:56:50.339Z,1005.65
2017-07-04T16:58:52.019Z,1005.61
2017-07-04T17:01:16.915Z,1005.6
2017-07-04T17:03:24.836Z,1005.58
2017-07-04T17:05:49.693Z,1005.59
2017-07-04T17:08:06.051Z,1005.54
2017-07-04T17:10:22.371Z,1005.58
2017-07-04T17:12:38.727Z,1005.5
2017-07-04T17:15:03.590Z,1005.54
2017-07-04T17:17:28.434Z,1005.54
2017-07-04T17:19:53.262Z,1005.53
2017-07-04T17:22:18.094Z,1005.51
2017-07-04T17:24:43.481Z,1005.54
2017-07-04T17:27:07.791Z,1005.51
2017-07-04T17:29:32.637Z,1005.55
2017-07-04T17:31:58.482Z,1005.57
2017-07-04T17:34:22.329Z,1005.56
2017-07-04T17:36:47.149Z,1005.51
2017-07-04T17:39:12.026Z,1005.49
2017-07-04T17:41:36.795Z,1005.51
2017-07-04T17:44:01.619Z,1005.5
2017-07-04T17:46:26.466Z,1005.53
2017-07-04T17:48:51.311Z,1005.51
2017-07-04T17:51:16.122Z,1005.51
2017-07-04T17:53:41.013Z,1005.44
2017-07-04T17:56:05.815Z,1005.44
2017-07-04T17:58:30.628Z,1005.45
2017-07-04T18:00:55.455Z,1005.44
2017-07-04T18:03:20.260Z,1005.44
2017-07-04T18:05:45.041Z,1005.42
2017-07-04T18:08:09.910Z,1005.4
2017-07-04T18:10:34.739Z,1005.44
2017-07-04T18:12:59.539Z,1005.41
2017-07-04T18:15:01.619Z,1005.36
2017-07-04T18:17:26.430Z,1005.34
2017-07-04T18:19:51.212Z,1005.29
2017-07-04T18:22:15.984Z,1005.34
2017-07-04T18:24:40.766Z,1005.31
2017-07-04T18:26:33.858Z,1005.24
2017-07-04T18:28:58.659Z,1005.28
2017-07-04T18:31:23.434Z,1005.27
2017-07-04T18:33:48.214Z,1005.28
2017-07-04T18:36:04.430Z,1005.26
2017-07-04T18:38:29.158Z,1005.26
2017-07-04T18:40:45.392Z,1005.24
2017-07-04T18:43:10.103Z,1005.25
2017-07-04T18:45:34.794Z,1005.24
2017-07-04T18:47:59.528Z,1005.21
2017-07-04T18:50:24.268Z,1005.22
2017-07-04T18:52:34.402Z,1005.18
2017-07-04T18:54:59.183Z,1005.2
2017-07-04T18:57:23.936Z,1005.19
2017-07-04T18:59:48.631Z,1005.21
2017-07-04T19:01:53.137Z,1005.2
2017-07-04T19:04:17.707Z,1005.21
2017-07-04T19:06:42.366Z,1005.28
2017-07-04T19:09:07.066Z,1005.29
2017-07-04T19:11:31.799Z,1005.26
2017-07-04T19:13:56.503Z,1005.29
2017-07-04T19:16:07.132Z,1005.28
2017-07-04T19:18:31.832Z,1005.28
2017-07-04T19:20:56.776Z,1005.27
2017-07-04T19:23:21.400Z,1005.31
2017-07-04T19:25:46.057Z,1005.33
2017-07-04T19:28:10.709Z,1005.34
2017-07-04T19:30:35.310Z,1005.34
2017-07-04T19:32:59.986Z,1005.36
2017-07-04T19:35:24.619Z,1005.38
2017-07-04T19:37:49.216Z,1005.37
2017-07-04T19:40:05.384Z,1005.4
2017-07-04T19:42:29.997Z,1005.44
2017-07-04T19:44:46.147Z,1005.45
2017-07-04T19:47:10.768Z,1005.47
2017-07-04T19:49:35.388Z,1005.51
2017-07-04T19:52:00.007Z,1005.51
2017-07-04T19:54:01.625Z,1005.52
2017-07-04T19:56:26.261Z,1005.57
2017-07-04T19:58:50.829Z,1005.56
2017-07-04T20:01:15.434Z,1005.63
2017-07-04T20:03:40.636Z,1005.63
2017-07-04T20:06:05.233Z,1005.67
2017-07-04T20:08:29.804Z,1005.64
2017-07-04T20:10:31.391Z,1005.64
2017-07-04T20:12:56.020Z,1005.67
2017-07-04T20:15:12.106Z,1005.73
2017-07-04T20:17:28.201Z,1005.69
2017-07-04T20:19:52.727Z,1005.74
2017-07-04T20:22:17.265Z,1005.69
2017-07-04T20:24:41.853Z,1005.75
2017-07-04T20:27:06.416Z,1005.73
2017-07-04T20:29:31.007Z,1005.77
2017-07-04T20:31:55.576Z,1005.82
2017-07-04T20:34:20.125Z,1005.78
2017-07-04T20:36:36.222Z,1005.79
2017-07-04T20:38:52.307Z,1005.78
2017-07-04T20:41:08.450Z,1005.76
2017-07-04T20:43:32.939Z,1005.75
2017-07-04T20:45:57.524Z,1005.77
2017-07-04T20:48:22.049Z,1005.74
2017-07-04T20:50:46.622Z,1005.74
2017-07-04T20:53:11.112Z,1005.76
2017-07-04T20:55:35.602Z,1005.7
2017-07-04T20:58:00.074Z,1005.7
2017-07-04T21:00:24.508Z,1005.68
2017-07-04T21:02:48.997Z,1005.71
2017-07-04T21:05:13.439Z,1005.73
2017-07-04T21:07:37.922Z,1005.75
2017-07-04T21:10:02.445Z,1005.75
2017-07-04T21:12:18.471Z,1005.78
2017-07-04T21:14:42.953Z,1005.77
2017-07-04T21:16:44.465Z,1005.77
2017-07-04T21:19:08.941Z,1005.77
2017-07-04T21:21:10.407Z,1005.8
2017-07-04T21:23:34.868Z,1005.79
2017-07-04T21:25:59.324Z,1005.79
2017-07-04T21:28:23.776Z,1005.76
2017-07-04T21:30:48.230Z,1005.75
2017-07-04T21:33:12.652Z,1005.74
2017-07-04T21:35:28.639Z,1005.7
2017-07-04T21:37:53.093Z,1005.7
2017-07-04T21:40:03.151Z,1005.71
2017-07-04T21:42:27.575Z,1005.74
2017-07-04T21:44:43.547Z,1005.78
2017-07-04T21:47:07.957Z,1005.8
2017-07-04T21:49:10.181Z,1005.77
2017-07-04T21:51:34.621Z,1005.73
2017-07-04T21:53:59.030Z,1005.73
2017-07-04T21:56:14.982Z,1005.76
2017-07-04T21:58:25.021Z,1005.77
2017-07-04T22:00:49.459Z,1005.72
2017-07-04T22:03:13.875Z,1005.7
2017-07-04T22:05:38.197Z,1005.65
2017-07-04T22:08:02.557Z,1005.67
2017-07-04T22:10:26.962Z,1005.66
2017-07-04T22:12:51.295Z,1005.64
2017-07-04T22:15:15.653Z,1005.64
2017-07-04T22:17:40.035Z,1005.63
2017-07-04T22:19:41.618Z,1005.61
2017-07-04T22:22:06.037Z,1005.58
2017-07-04T22:24:30.391Z,1005.57
2017-07-04T22:26:31.864Z,1005.59
2017-07-04T22:28:41.872Z,1005.61
2017-07-04T22:30:57.764Z,1005.58
2017-07-04T22:32:59.574Z,1005.59
2017-07-04T22:35:24.939Z,1005.55
2017-07-04T22:37:49.254Z,1005.53
2017-07-04T22:40:05.148Z,1005.5
2017-07-04T22:42:29.454Z,1005.48
2017-07-04T22:44:53.762Z,1005.44
2017-07-04T22:47:18.061Z,1005.44
2017-07-04T22:49:33.903Z,1005.4
2017-07-04T22:51:58.604Z,1005.35
2017-07-04T22:54:22.867Z,1005.33
2017-07-04T22:56:47.114Z,1005.29
2017-07-04T22:59:11.416Z,1005.25
2017-07-04T23:01:35.771Z,1005.24
2017-07-04T23:03:51.584Z,1005.2
2017-07-04T23:06:15.861Z,1005.24
2017-07-04T23:08:40.126Z,1005.24
2017-07-04T23:11:04.397Z,1005.2
2017-07-04T23:13:05.908Z,1005.19
2017-07-04T23:15:21.759Z,1005.11
2017-07-04T23:17:46.070Z,1005.23
2017-07-04T23:20:10.340Z,1005.16
2017-07-04T23:22:34.647Z,1005.25
2017-07-04T23:24:58.939Z,1005.2
2017-07-04T23:27:23.170Z,1005.17
2017-07-04T23:29:47.457Z,1005.2
2017-07-04T23:32:11.756Z,1005.19
2017-07-04T23:34:36.069Z,1005.19
2017-07-04T23:36:51.880Z,1005.14
2017-07-04T23:39:16.143Z,1005.15
2017-07-04T23:41:40.356Z,1005.13
2017-07-04T23:44:04.590Z,1005.13
2017-07-04T23:46:28.835Z,1005.1
2017-07-04T23:48:53.078Z,1005.09
2017-07-04T23:51:17.283Z,1005.08
2017-07-04T23:53:41.530Z,1005.04
2017-07-04T23:56:05.728Z,1005.03
2017-07-04T23:58:29.959Z,1005.05
